createdAt,value
2023-04-20T00:00:29.562Z,60.06
2023-04-20T00:03:33.136Z,59.42
2023-04-20T00:06:34.921Z,59.07
2023-04-20T00:09:36.532Z,58.87
2023-04-20T00:12:38.054Z,58.46
2023-04-20T00:15:39.578Z,58.84
2023-04-20T00:18:41.304Z,58.84
2023-04-20T00:21:42.827Z,59.41
2023-04-20T00:24:44.370Z,59.11
2023-04-20T00:27:45.984Z,58.51
2023-04-20T00:30:47.586Z,58.60
2023-04-20T00:33:49.252Z,59.10
2023-04-20T00:36:51.005Z,59.54
2023-04-20T00:39:52.714Z,59.69
2023-04-20T00:42:54.235Z,59.80
2023-04-20T00:45:58.303Z,60.60
2023-04-20T00:49:00.162Z,60.36
2023-04-20T00:52:01.845Z,60.49
2023-04-20T00:55:05.529Z,60.01
2023-04-20T00:58:07.095Z,60.64
2023-04-20T01:01:08.888Z,60.66
2023-04-20T01:04:10.812Z,60.94
2023-04-20T01:07:12.476Z,60.59
2023-04-20T01:10:14.050Z,60.97
2023-04-20T01:13:15.932Z,61.53
2023-04-20T01:16:17.603Z,61.49
2023-04-20T01:19:19.358Z,61.05
2023-04-20T01:22:21.259Z,60.28
2023-04-20T01:25:23.388Z,60.52
2023-04-20T01:28:26.443Z,60.08
2023-04-20T01:31:28.035Z,60.15
2023-04-20T01:34:29.651Z,60.16
2023-04-20T01:37:31.323Z,59.89
2023-04-20T01:40:32.927Z,59.74
2023-04-20T01:43:36.685Z,59.52
2023-04-20T01:46:40.124Z,60.27
2023-04-20T01:49:42.072Z,59.58
2023-04-20T01:52:43.582Z,59.16
2023-04-20T01:55:45.159Z,59.09
2023-04-20T01:58:48.147Z,59.60
2023-04-20T02:01:50.910Z,59.90
2023-04-20T02:04:53.289Z,59.75
2023-04-20T02:07:55.282Z,59.87
2023-04-20T02:10:56.922Z,59.80
2023-04-20T02:13:58.409Z,60.13
2023-04-20T02:17:00.906Z,59.73
2023-04-20T02:20:07.290Z,59.99
2023-04-20T02:23:09.135Z,60.01
2023-04-20T02:26:10.736Z,60.11
2023-04-20T02:29:15.070Z,60.13
2023-04-20T02:32:16.740Z,60.48
2023-04-20T02:35:18.457Z,60.71
2023-04-20T02:38:20.372Z,60.32
2023-04-20T02:41:21.887Z,60.60
2023-04-20T02:44:23.861Z,60.66
2023-04-20T02:47:25.955Z,60.72
2023-04-20T02:50:28.864Z,60.46
2023-04-20T02:53:47.029Z,60.77
2023-04-20T02:57:01.620Z,60.79
2023-04-20T03:00:03.580Z,60.85
2023-04-20T03:03:21.607Z,60.77
2023-04-20T03:06:23.364Z,61.20
2023-04-20T03:09:29.933Z,60.82
2023-04-20T03:12:40.490Z,61.06
2023-04-20T03:15:47.776Z,60.94
2023-04-20T03:19:01.039Z,60.91
2023-04-20T03:22:02.809Z,60.84
2023-04-20T03:25:07.787Z,60.84
2023-04-20T03:28:26.693Z,60.77
2023-04-20T03:31:28.490Z,61.10
2023-04-20T03:34:32.012Z,60.85
2023-04-20T03:37:33.793Z,61.22
2023-04-20T03:40:35.444Z,60.63
2023-04-20T03:43:37.438Z,60.90
2023-04-20T03:46:38.984Z,61.08
2023-04-20T03:49:40.547Z,61.01
2023-04-20T03:52:42.104Z,61.03
2023-04-20T03:55:45.515Z,60.64
2023-04-20T03:58:50.594Z,60.98
2023-04-20T04:01:56.782Z,61.10
2023-04-20T04:04:58.519Z,61.13
2023-04-20T04:08:01.552Z,61.38
2023-04-20T04:11:03.066Z,61.17
2023-04-20T04:14:05.229Z,61.70
2023-04-20T04:17:08.213Z,61.62
2023-04-20T04:20:12.584Z,61.55
2023-04-20T04:23:14.812Z,62.03
2023-04-20T04:26:24.784Z,61.90
2023-04-20T04:29:27.519Z,62.10
2023-04-20T04:32:34.555Z,61.55
2023-04-20T04:35:36.636Z,61.70
2023-04-20T04:38:38.798Z,61.29
2023-04-20T04:41:40.471Z,61.40
2023-04-20T04:44:56.264Z,61.08
2023-04-20T04:48:08.012Z,61.54
2023-04-20T04:51:10.383Z,61.17
2023-04-20T04:54:12.005Z,61.33
2023-04-20T04:57:14.891Z,61.17
2023-04-20T05:00:16.849Z,61.27
2023-04-20T05:03:18.531Z,61.26
2023-04-20T05:06:20.553Z,61.41
2023-04-20T05:09:22.060Z,61.50
2023-04-20T05:12:25.669Z,61.21
2023-04-20T05:15:27.265Z,60.95
2023-04-20T05:18:54.161Z,60.64
2023-04-20T05:21:55.745Z,59.65
2023-04-20T05:24:57.337Z,60.02
2023-04-20T05:27:58.985Z,59.75
2023-04-20T05:31:00.537Z,60.01
2023-04-20T05:34:02.955Z,59.54
2023-04-20T05:37:05.638Z,59.29
2023-04-20T05:40:07.926Z,58.94
2023-04-20T05:43:09.421Z,59.61
2023-04-20T05:46:11.022Z,59.00
2023-04-20T05:49:12.549Z,59.33
2023-04-20T05:52:14.083Z,59.44
2023-04-20T05:55:18.451Z,59.30
2023-04-20T05:58:21.188Z,59.37
2023-04-20T06:01:22.954Z,59.25
2023-04-20T06:04:24.639Z,58.83
2023-04-20T06:07:26.245Z,59.04
2023-04-20T06:10:32.295Z,58.63
2023-04-20T06:13:33.758Z,58.59
2023-04-20T06:16:35.304Z,58.52
2023-04-20T06:19:36.902Z,58.09
2023-04-20T06:22:44.405Z,58.18
2023-04-20T06:25:46.178Z,57.99
2023-04-20T06:28:48.475Z,57.79
2023-04-20T06:31:50.307Z,57.40
2023-04-20T06:34:52.762Z,57.06
2023-04-20T06:37:57.276Z,56.81
2023-04-20T06:41:01.914Z,56.88
2023-04-20T06:44:03.546Z,56.98
2023-04-20T06:47:05.653Z,56.75
2023-04-20T06:50:09.375Z,56.45
2023-04-20T06:53:11.102Z,55.23
2023-04-20T06:56:12.590Z,55.24
2023-04-20T06:59:16.685Z,55.20
2023-04-20T07:02:18.570Z,54.98
2023-04-20T07:05:20.328Z,55.11
2023-04-20T07:08:21.906Z,54.88
2023-04-20T07:11:24.541Z,55.36
2023-04-20T07:14:26.172Z,55.26
2023-04-20T07:17:28.247Z,55.08
2023-04-20T07:20:30.037Z,55.20
2023-04-20T07:23:31.557Z,55.83
2023-04-20T07:26:34.464Z,56.13
2023-04-20T07:29:37.169Z,56.60
2023-04-20T07:32:40.843Z,57.34
2023-04-20T07:35:42.398Z,57.76
2023-04-20T07:38:43.873Z,57.11
2023-04-20T07:41:45.398Z,56.91
2023-04-20T07:44:50.127Z,56.80
2023-04-20T07:47:52.464Z,56.78
2023-04-20T07:50:53.949Z,56.38
2023-04-20T07:53:56.109Z,56.48
2023-04-20T07:56:57.879Z,56.99
2023-04-20T07:59:59.364Z,55.18
2023-04-20T08:03:01.184Z,54.80
2023-04-20T08:06:02.838Z,52.81
2023-04-20T08:09:04.404Z,52.42
2023-04-20T08:12:05.906Z,52.91
2023-04-20T08:15:08.264Z,53.37
2023-04-20T08:18:11.316Z,52.89
2023-04-20T08:21:12.886Z,53.05
2023-04-20T08:24:14.481Z,52.24
2023-04-20T08:27:15.940Z,52.38
2023-04-20T08:30:17.534Z,51.76
2023-04-20T08:33:19.006Z,50.58
2023-04-20T08:36:20.727Z,49.87
2023-04-20T08:39:24.064Z,48.97
2023-04-20T08:42:25.783Z,48.40
2023-04-20T08:45:28.264Z,48.30
2023-04-20T08:48:35.703Z,49.34
2023-04-20T08:51:37.229Z,48.50
2023-04-20T08:54:45.947Z,47.62
2023-04-20T08:57:54.766Z,47.45
2023-04-20T09:00:57.191Z,47.38
2023-04-20T09:04:00.742Z,47.73
2023-04-20T09:07:02.921Z,49.29
2023-04-20T09:10:04.733Z,49.46
2023-04-20T09:13:06.851Z,49.22
2023-04-20T09:16:13.549Z,51.27
2023-04-20T09:19:15.573Z,52.10
2023-04-20T09:22:17.127Z,52.26
2023-04-20T09:25:19.247Z,52.63
2023-04-20T09:28:20.980Z,52.73
2023-04-20T09:31:23.413Z,52.30
2023-04-20T09:34:25.710Z,51.77
2023-04-20T09:37:27.460Z,50.57
2023-04-20T09:40:29.772Z,49.08
2023-04-20T09:43:32.236Z,48.87
2023-04-20T09:46:35.662Z,48.69
2023-04-20T09:49:37.152Z,47.75
2023-04-20T09:52:39.066Z,47.55
2023-04-20T09:55:45.722Z,47.17
2023-04-20T09:58:47.295Z,47.31
2023-04-20T10:01:49.074Z,47.23
2023-04-20T10:04:58.031Z,47.20
2023-04-20T10:08:01.385Z,47.09
2023-04-20T10:11:02.901Z,47.31
2023-04-20T10:14:18.979Z,46.57
2023-04-20T10:17:30.827Z,46.85
2023-04-20T10:20:32.566Z,46.72
2023-04-20T10:23:34.198Z,46.98
2023-04-20T10:26:40.207Z,47.04
2023-04-20T10:29:42.014Z,48.15
2023-04-20T10:32:43.621Z,48.88
2023-04-20T10:35:51.920Z,46.99
2023-04-20T10:38:53.513Z,46.49
2023-04-20T10:42:01.254Z,46.32
2023-04-20T10:45:02.802Z,46.38
2023-04-20T10:48:09.231Z,46.46
2023-04-20T10:51:11.293Z,46.65
2023-04-20T10:54:12.924Z,46.53
2023-04-20T10:57:16.365Z,46.83
2023-04-20T11:00:22.902Z,46.89
2023-04-20T11:03:24.676Z,47.03
2023-04-20T11:06:26.277Z,46.72
2023-04-20T11:09:28.429Z,47.31
2023-04-20T11:12:38.603Z,48.41
2023-04-20T11:15:40.185Z,48.75
2023-04-20T11:18:51.918Z,49.42
2023-04-20T11:21:53.948Z,49.50
2023-04-20T11:25:06.764Z,49.58
2023-04-20T11:28:09.274Z,50.20
2023-04-20T11:31:17.560Z,50.75
2023-04-20T11:34:19.267Z,50.37
2023-04-20T11:37:21.410Z,49.81
2023-04-20T11:40:23.097Z,50.17
2023-04-20T11:43:24.616Z,51.16
2023-04-20T11:46:26.239Z,50.16
2023-04-20T11:49:29.341Z,48.79
2023-04-20T11:52:30.868Z,48.88
2023-04-20T11:55:32.665Z,49.16
2023-04-20T11:58:34.472Z,49.01
2023-04-20T12:01:36.398Z,49.07
2023-04-20T12:04:39.002Z,48.56
2023-04-20T12:07:40.820Z,47.73
2023-04-20T12:10:42.408Z,47.18
2023-04-20T12:13:43.850Z,46.88
2023-04-20T12:16:45.466Z,46.25
2023-04-20T12:19:47.778Z,46.28
2023-04-20T12:22:49.404Z,45.65
2023-04-20T12:25:50.999Z,45.91
2023-04-20T12:28:52.967Z,46.24
2023-04-20T12:31:54.631Z,46.21
2023-04-20T12:34:56.215Z,45.77
2023-04-20T12:37:57.789Z,44.56
2023-04-20T12:40:59.353Z,44.49
2023-04-20T12:44:03.419Z,44.83
2023-04-20T12:47:07.030Z,44.96
2023-04-20T12:50:09.031Z,44.45
2023-04-20T12:53:10.896Z,43.92
2023-04-20T12:56:12.367Z,43.08
2023-04-20T12:59:14.261Z,42.85
2023-04-20T13:02:16.174Z,42.74
2023-04-20T13:05:17.951Z,42.68
2023-04-20T13:08:19.843Z,43.03
2023-04-20T13:11:22.071Z,42.77
2023-04-20T13:14:23.610Z,41.80
2023-04-20T13:17:25.189Z,42.16
2023-04-20T13:20:30.323Z,43.00
2023-04-20T13:23:31.857Z,43.06
2023-04-20T13:26:33.460Z,43.18
2023-04-20T13:29:34.934Z,43.12
2023-04-20T13:32:37.630Z,42.97
2023-04-20T13:35:40.758Z,42.75
2023-04-20T13:38:42.190Z,43.10
2023-04-20T13:41:43.962Z,43.52
2023-04-20T13:44:45.630Z,43.29
2023-04-20T13:47:47.189Z,43.25
2023-04-20T13:50:48.691Z,43.37
2023-04-20T13:53:50.193Z,43.52
2023-04-20T13:56:51.717Z,43.12
2023-04-20T13:59:53.216Z,43.05
2023-04-20T14:02:56.100Z,43.28
2023-04-20T14:05:58.006Z,42.81
2023-04-20T14:08:59.507Z,42.67
2023-04-20T14:12:02.149Z,43.02
2023-04-20T14:15:04.305Z,42.97
2023-04-20T14:18:06.102Z,43.13
2023-04-20T14:21:07.749Z,43.46
2023-04-20T14:24:10.150Z,43.58
2023-04-20T14:27:11.754Z,44.00
2023-04-20T14:30:13.683Z,44.04
2023-04-20T14:33:15.156Z,44.94
2023-04-20T14:36:16.646Z,45.13
2023-04-20T14:39:20.442Z,45.49
2023-04-20T14:42:22.028Z,46.12
2023-04-20T14:45:23.967Z,46.00
2023-04-20T14:48:25.457Z,46.11
2023-04-20T14:51:27.089Z,46.35
2023-04-20T14:54:29.663Z,46.27
2023-04-20T14:57:31.579Z,46.88
2023-04-20T15:00:33.514Z,46.63
2023-04-20T15:03:35.479Z,46.74
2023-04-20T15:06:37.101Z,46.54
2023-04-20T15:09:38.816Z,47.04
2023-04-20T15:12:40.258Z,46.62
2023-04-20T15:18:51.662Z,46.60
2023-04-20T15:21:53.210Z,46.47
2023-04-20T15:24:54.713Z,46.40
2023-04-20T15:27:56.223Z,46.31
2023-04-20T15:30:57.816Z,46.34
2023-04-20T15:34:00.199Z,46.68
2023-04-20T15:37:01.694Z,46.29
2023-04-20T15:40:03.687Z,46.30
2023-04-20T15:43:05.279Z,46.36
2023-04-20T15:46:06.767Z,45.78
2023-04-20T15:49:08.254Z,45.63
2023-04-20T15:52:09.862Z,44.81
2023-04-20T15:55:11.842Z,43.83
2023-04-20T15:58:13.291Z,42.53
2023-04-20T16:01:16.466Z,42.20
2023-04-20T16:04:18.563Z,42.28
2023-04-20T16:07:21.088Z,41.92
2023-04-20T16:10:23.579Z,41.76
2023-04-20T16:13:26.214Z,41.20
2023-04-20T16:16:27.933Z,38.76
2023-04-20T16:19:32.303Z,34.89
2023-04-20T16:22:34.028Z,31.41
2023-04-20T16:25:36.468Z,31.45
2023-04-20T16:28:38.118Z,29.41
2023-04-20T16:31:41.075Z,26.43
2023-04-20T16:34:42.653Z,26.30
2023-04-20T16:37:45.516Z,25.64
2023-04-20T16:40:47.403Z,27.33
2023-04-20T16:43:49.275Z,32.80
2023-04-20T16:46:51.400Z,36.61
2023-04-20T16:49:52.989Z,38.41
2023-04-20T16:52:54.522Z,35.96
2023-04-20T16:55:56.041Z,32.03
2023-04-20T16:58:58.192Z,30.95
2023-04-20T17:01:59.842Z,34.90
2023-04-20T17:05:01.717Z,38.30
2023-04-20T17:08:22.567Z,40.33
2023-04-20T17:11:24.046Z,41.16
2023-04-20T17:14:25.963Z,42.12
2023-04-20T17:17:28.265Z,43.27
2023-04-20T17:20:29.974Z,43.53
2023-04-20T17:23:33.707Z,44.01
2023-04-20T17:26:35.275Z,44.82
2023-04-20T17:29:38.561Z,45.63
2023-04-20T17:32:40.520Z,45.70
2023-04-20T17:35:42.054Z,46.67
2023-04-20T17:38:44.160Z,46.95
2023-04-20T17:41:46.052Z,47.28
2023-04-20T17:44:47.764Z,47.36
2023-04-20T17:47:49.437Z,47.61
2023-04-20T17:50:51.487Z,47.63
2023-04-20T17:53:53.185Z,48.25
2023-04-20T17:56:56.083Z,48.56
2023-04-20T17:59:57.782Z,48.88
2023-04-20T18:03:00.256Z,49.32
2023-04-20T18:06:03.126Z,49.74
2023-04-20T18:09:04.897Z,50.09
2023-04-20T18:12:11.306Z,50.14
2023-04-20T18:15:13.047Z,50.49
2023-04-20T18:18:16.716Z,50.96
2023-04-20T18:21:18.301Z,51.38
2023-04-20T18:24:20.044Z,52.07
2023-04-20T18:27:21.703Z,52.57
2023-04-20T18:30:23.271Z,53.03
2023-04-20T18:33:24.799Z,54.02
2023-04-20T18:36:26.884Z,53.63
2023-04-20T18:39:29.796Z,53.69
2023-04-20T18:42:31.487Z,53.84
2023-04-20T18:45:33.015Z,54.05
2023-04-20T18:48:34.553Z,54.31
2023-04-20T18:51:36.064Z,54.31
2023-04-20T18:54:38.480Z,54.75
2023-04-20T18:57:40.325Z,54.83
2023-04-20T19:00:41.838Z,54.78
2023-04-20T19:03:45.550Z,55.42
2023-04-20T19:06:49.300Z,55.86
2023-04-20T19:09:50.801Z,55.63
2023-04-20T19:12:52.243Z,55.59
2023-04-20T19:15:59.614Z,56.07
2023-04-20T19:19:01.542Z,56.21
2023-04-20T19:22:04.372Z,56.33
2023-04-20T19:25:06.487Z,56.08
2023-04-20T19:28:08.253Z,56.19
2023-04-20T19:31:10.997Z,56.89
2023-04-20T19:34:13.342Z,56.68
2023-04-20T19:37:15.226Z,56.50
2023-04-20T19:40:16.748Z,57.27
2023-04-20T19:43:18.212Z,57.58
2023-04-20T19:46:20.472Z,57.37
2023-04-20T19:49:22.089Z,57.21
2023-04-20T19:52:23.652Z,57.56
2023-04-20T19:55:25.252Z,57.72
2023-04-20T19:58:26.796Z,58.00
2023-04-20T20:01:28.415Z,58.44
2023-04-20T20:04:30.089Z,58.04
2023-04-20T20:07:31.736Z,58.53
2023-04-20T20:10:33.321Z,57.83
2023-04-20T20:13:34.773Z,58.20
2023-04-20T20:16:36.327Z,58.00
2023-04-20T20:19:37.833Z,58.66
2023-04-20T20:22:39.334Z,58.44
2023-04-20T20:25:40.988Z,58.79
2023-04-20T20:28:42.487Z,58.90
2023-04-20T20:31:45.371Z,58.67
2023-04-20T20:34:47.243Z,59.02
2023-04-20T20:37:48.869Z,58.98
2023-04-20T20:40:50.529Z,59.04
2023-04-20T20:43:52.940Z,58.87
2023-04-20T20:46:54.627Z,58.93
2023-04-20T20:49:56.705Z,59.05
2023-04-20T20:52:58.213Z,59.31
2023-04-20T20:55:59.714Z,59.41
2023-04-20T20:59:01.166Z,59.56
2023-04-20T21:02:03.373Z,59.28
2023-04-20T21:05:06.312Z,59.64
2023-04-20T21:08:09.931Z,59.64
2023-04-20T21:11:11.484Z,60.06
2023-04-20T21:14:12.952Z,59.65
2023-04-20T21:17:14.474Z,59.57
2023-04-20T21:20:16.080Z,59.61
2023-04-20T21:23:17.592Z,59.88
2023-04-20T21:26:19.023Z,60.33
2023-04-20T21:29:20.775Z,59.87
2023-04-20T21:32:22.412Z,60.17
2023-04-20T21:35:23.993Z,59.96
2023-04-20T21:38:25.588Z,60.26
2023-04-20T21:41:28.952Z,60.48
2023-04-20T21:44:30.719Z,60.36
2023-04-20T21:47:32.194Z,60.43
2023-04-20T21:50:33.682Z,60.52
2023-04-20T21:53:35.193Z,60.43
2023-04-20T21:56:36.660Z,60.38
2023-04-20T21:59:38.094Z,60.51
2023-04-20T22:02:39.802Z,60.86
2023-04-20T22:05:41.375Z,60.87
2023-04-20T22:08:42.924Z,61.04
2023-04-20T22:11:45.146Z,61.14
2023-04-20T22:14:46.745Z,61.30
2023-04-20T22:17:48.368Z,61.29
2023-04-20T22:20:51.253Z,61.50
2023-04-20T22:23:53.004Z,61.82
2023-04-20T22:26:54.433Z,61.61
2023-04-20T22:29:56.110Z,61.68
2023-04-20T22:32:57.600Z,61.54
2023-04-20T22:35:59.160Z,61.87
2023-04-20T22:39:00.803Z,61.84
2023-04-20T22:42:02.826Z,62.12
2023-04-20T22:45:04.853Z,61.88
2023-04-20T22:48:06.655Z,61.88
2023-04-20T22:51:08.223Z,61.96
2023-04-20T22:54:09.677Z,61.92
2023-04-20T22:57:11.385Z,62.02
2023-04-20T23:00:14.034Z,62.05
2023-04-20T23:03:15.997Z,62.37
2023-04-20T23:06:18.876Z,62.54
2023-04-20T23:09:20.652Z,62.45
2023-04-20T23:12:22.520Z,62.52
2023-04-20T23:15:24.022Z,62.82
2023-04-20T23:18:25.604Z,62.66
2023-04-20T23:21:30.112Z,62.75
2023-04-20T23:24:31.674Z,62.37
2023-04-20T23:27:33.130Z,62.80
2023-04-20T23:30:34.605Z,62.51
2023-04-20T23:33:36.124Z,62.86
2023-04-20T23:36:37.690Z,63.18
2023-04-20T23:39:39.177Z,62.76
2023-04-20T23:42:40.684Z,62.82
2023-04-20T23:45:42.245Z,63.28
2023-04-20T23:48:43.759Z,63.11
2023-04-20T23:51:45.258Z,63.03
2023-04-20T23:54:47.420Z,62.97
2023-04-20T23:57:48.944Z,63.25
